createdAt,value
2023-03-05T00:00:19.721Z,0.0
2023-03-05T00:05:16.724Z,0.0
2023-03-05T00:10:19.795Z,0.0
2023-03-05T00:15:19.705Z,0.0
2023-03-05T00:20:19.757Z,0.0
2023-03-05T00:25:19.748Z,0.0
2023-03-05T00:30:17.645Z,0.0
2023-03-05T00:35:19.805Z,0.0
2023-03-05T00:40:19.867Z,0.0
2023-03-05T00:45:19.729Z,0.0
2023-03-05T00:50:19.718Z,0.0
2023-03-05T00:55:16.776Z,0.0
2023-03-05T01:00:16.787Z,0.0
2023-03-05T01:05:17.659Z,0.0
2023-03-05T01:10:19.790Z,0.0
2023-03-05T01:15:16.724Z,0.0
2023-03-05T01:20:16.822Z,0.0
2023-03-05T01:25:19.776Z,0.0
2023-03-05T01:30:19.736Z,0.0
2023-03-05T01:35:20.609Z,0.0
2023-03-05T01:40:19.742Z,0.0
2023-03-05T01:45:19.716Z,0.0
2023-03-05T01:50:19.763Z,0.0
2023-03-05T01:55:16.817Z,0.0
2023-03-05T02:00:16.784Z,0.0
2023-03-05T02:05:19.798Z,0.0
2023-03-05T02:10:17.544Z,0.0
2023-03-05T02:15:19.849Z,0.0
2023-03-05T02:20:19.815Z,0.0
2023-03-05T02:25:16.835Z,0.0
2023-03-05T02:30:19.799Z,0.0
2023-03-05T02:35:19.902Z,0.0
2023-03-05T02:40:20.626Z,0.0
2023-03-05T02:45:19.777Z,0.0
2023-03-05T02:50:19.793Z,0.0
2023-03-05T02:55:19.794Z,0.0
2023-03-05T03:00:19.783Z,0.0
2023-03-05T03:05:19.799Z,0.0
2023-03-05T03:10:16.837Z,0.0
2023-03-05T03:15:20.735Z,0.0
2023-03-05T03:20:16.840Z,0.0
2023-03-05T03:25:19.901Z,0.0
2023-03-05T03:30:16.916Z,0.0
2023-03-05T03:35:19.928Z,0.0
2023-03-05T03:40:16.921Z,0.0
2023-03-05T03:45:19.875Z,0.0
2023-03-05T03:50:17.712Z,0.0
2023-03-05T03:55:19.883Z,0.0
2023-03-05T04:00:19.860Z,0.0
2023-03-05T04:05:16.873Z,0.0
2023-03-05T04:10:18.831Z,0.0
2023-03-05T04:15:16.963Z,0.0
2023-03-05T04:20:20.837Z,0.0
2023-03-05T04:25:19.836Z,0.0
2023-03-05T04:30:16.820Z,0.0
2023-03-05T04:35:16.790Z,0.0
2023-03-05T04:40:19.921Z,0.0
2023-03-05T04:45:19.824Z,0.0
2023-03-05T04:50:19.949Z,0.0
2023-03-05T04:55:20.611Z,0.0
2023-03-05T05:00:19.156Z,0.0
2023-03-05T05:05:16.207Z,0.0
2023-03-05T05:10:22.080Z,0.0
2023-03-05T05:15:16.238Z,0.0
2023-03-05T05:20:19.182Z,0.0
2023-03-05T05:25:19.101Z,0.0
2023-03-05T05:30:17.021Z,0.0
2023-03-05T05:35:19.252Z,0.0
2023-03-05T05:40:19.185Z,0.0
2023-03-05T05:45:19.248Z,0.0
2023-03-05T05:50:19.169Z,0.0
2023-03-05T05:55:19.168Z,0.0
2023-03-05T06:00:16.194Z,0.0
2023-03-05T06:05:20.286Z,0.0
2023-03-05T06:10:19.365Z,0.0
2023-03-05T06:15:16.254Z,0.0
2023-03-05T06:20:19.237Z,0.0
2023-03-05T06:25:16.222Z,0.0
2023-03-05T06:30:19.211Z,0.0
2023-03-05T06:35:16.239Z,0.0
2023-03-05T06:40:16.939Z,0.0
2023-03-05T06:45:16.208Z,0.0
2023-03-05T06:50:16.259Z,0.0
2023-03-05T06:55:16.231Z,0.0
2023-03-05T07:00:19.203Z,0.0
2023-03-05T07:05:19.225Z,0.0
2023-03-05T07:10:20.033Z,0.0
2023-03-05T07:15:19.185Z,0.0
2023-03-05T07:20:16.229Z,0.0
2023-03-05T07:25:16.304Z,0.0
2023-03-05T07:30:19.237Z,0.0
2023-03-05T07:35:19.295Z,0.0
2023-03-05T07:40:19.221Z,0.0
2023-03-05T07:45:20.187Z,0.0
2023-03-05T07:50:16.370Z,0.0
2023-03-05T07:55:16.377Z,0.0
2023-03-05T08:00:19.256Z,0.0
2023-03-05T08:05:16.283Z,0.0
2023-03-05T08:10:19.326Z,0.0
2023-03-05T08:15:16.289Z,0.0
2023-03-05T08:20:20.104Z,0.0
2023-03-05T08:25:16.340Z,0.0
2023-03-05T08:30:19.332Z,0.0
2023-03-05T08:35:16.350Z,0.0
2023-03-05T08:40:19.277Z,0.0
2023-03-05T08:45:16.324Z,0.0
2023-03-05T08:50:19.444Z,0.0
2023-03-05T08:55:17.188Z,0.0
2023-03-05T09:00:19.343Z,0.0
2023-03-05T09:05:16.337Z,0.0
2023-03-05T09:10:19.278Z,0.0
2023-03-05T09:15:19.325Z,0.0
2023-03-05T09:20:19.335Z,0.0
2023-03-05T09:25:16.376Z,0.0
2023-03-05T09:30:20.342Z,0.0
2023-03-05T09:35:16.350Z,0.0
2023-03-05T09:40:19.307Z,0.0
2023-03-05T09:45:16.353Z,0.0
2023-03-05T09:50:19.357Z,0.0
2023-03-05T09:55:19.298Z,0.0
2023-03-05T10:00:16.341Z,0.0
2023-03-05T10:05:20.184Z,0.0
2023-03-05T10:10:19.348Z,0.0
2023-03-05T10:15:19.351Z,0.0
2023-03-05T10:20:16.432Z,0.0
2023-03-05T10:25:19.383Z,0.0
2023-03-05T10:30:16.379Z,0.0
2023-03-05T10:35:19.627Z,0.0
2023-03-05T10:40:20.185Z,0.0
2023-03-05T10:45:16.421Z,0.0
2023-03-05T10:50:16.453Z,0.0
2023-03-05T10:55:19.400Z,0.0
2023-03-05T11:00:19.408Z,0.0
2023-03-05T11:05:16.408Z,0.0
2023-03-05T11:10:19.470Z,0.0
2023-03-05T11:15:20.143Z,0.0
2023-03-05T11:20:19.366Z,0.0
2023-03-05T11:25:16.414Z,0.0
2023-03-05T11:30:19.352Z,0.0
2023-03-05T11:35:19.485Z,0.0
2023-03-05T11:40:16.435Z,0.0
2023-03-05T11:45:19.451Z,0.0
2023-03-05T11:50:20.367Z,0.0
2023-03-05T11:55:19.475Z,0.0
2023-03-05T12:00:19.423Z,0.2
2023-03-05T12:05:16.454Z,1.2
2023-03-05T12:10:19.465Z,1.2
2023-03-05T12:15:19.466Z,1.2
2023-03-05T12:20:16.535Z,0.4
2023-03-05T12:25:20.414Z,0.0
2023-03-05T12:30:16.438Z,0.2
2023-03-05T12:35:19.542Z,1.2
2023-03-05T12:40:19.605Z,1.2
2023-03-05T12:45:19.458Z,1.2
2023-03-05T12:50:19.488Z,1.3
2023-03-05T12:55:16.487Z,1.3
2023-03-05T13:00:20.556Z,1.3
2023-03-05T13:05:16.485Z,1.4
2023-03-05T13:10:19.453Z,1.5
2023-03-05T13:15:19.451Z,1.6
2023-03-05T13:20:16.486Z,1.6
2023-03-05T13:25:19.448Z,1.6
2023-03-05T13:30:16.600Z,1.6
2023-03-05T13:35:20.380Z,1.7
2023-03-05T13:40:19.515Z,1.7
2023-03-05T13:45:19.488Z,1.6
2023-03-05T13:50:16.713Z,1.5
2023-03-05T13:55:19.518Z,1.5
2023-03-05T14:00:16.668Z,1.6
2023-03-05T14:05:19.903Z,1.6
2023-03-05T14:10:20.450Z,1.6
2023-03-05T14:15:19.438Z,1.6
2023-03-05T14:20:19.466Z,1.7
2023-03-05T14:25:16.569Z,1.8
2023-03-05T14:30:19.539Z,1.9
2023-03-05T14:35:19.512Z,2.0
2023-03-05T14:40:20.551Z,2.0
2023-03-05T14:45:20.317Z,2.1
2023-03-05T14:50:19.495Z,2.2
2023-03-05T14:55:19.489Z,2.2
2023-03-05T15:00:19.518Z,2.2
2023-03-05T15:05:16.566Z,2.5
2023-03-05T15:10:19.508Z,2.5
2023-03-05T15:15:19.534Z,2.6
2023-03-05T15:20:20.646Z,2.9
2023-03-05T15:25:19.498Z,3.2
2023-03-05T15:30:16.580Z,3.2
2023-03-05T15:35:19.626Z,3.1
2023-03-05T15:40:16.601Z,3.0
2023-03-05T15:45:19.599Z,3.1
2023-03-05T15:50:19.669Z,3.0
2023-03-05T15:55:17.547Z,3.0
2023-03-05T16:00:16.643Z,3.3
2023-03-05T16:05:19.583Z,3.4
2023-03-05T16:10:19.608Z,3.5
2023-03-05T16:15:19.598Z,3.5
2023-03-05T16:20:16.650Z,3.3
2023-03-05T16:25:16.636Z,3.2
2023-03-05T16:30:17.714Z,2.9
2023-03-05T16:35:16.745Z,3.3
2023-03-05T16:40:16.632Z,3.6
2023-03-05T16:45:19.580Z,3.2
2023-03-05T16:50:16.620Z,2.8
2023-03-05T16:55:19.641Z,2.7
2023-03-05T17:00:20.659Z,3.6
2023-03-05T17:05:16.710Z,3.7
2023-03-05T17:10:19.666Z,2.9
2023-03-05T17:15:16.619Z,3.0
2023-03-05T17:20:19.668Z,3.3
2023-03-05T17:25:19.607Z,2.9
2023-03-05T17:30:16.646Z,3.2
2023-03-05T17:35:20.572Z,3.2
2023-03-05T17:40:19.597Z,2.5
2023-03-05T17:45:19.578Z,2.1
2023-03-05T17:50:19.601Z,2.4
2023-03-05T17:55:19.599Z,2.6
2023-03-05T18:00:19.571Z,2.2
2023-03-05T18:05:19.611Z,1.9
2023-03-05T18:10:20.527Z,2.0
2023-03-05T18:15:19.657Z,2.1
2023-03-05T18:20:19.697Z,1.8
2023-03-05T18:25:19.662Z,1.8
2023-03-05T18:30:19.630Z,2.0
2023-03-05T18:35:19.670Z,1.9
2023-03-05T18:40:19.789Z,1.7
2023-03-05T18:45:20.536Z,1.7
2023-03-05T18:50:16.650Z,1.7
2023-03-05T18:55:19.663Z,1.9
2023-03-05T19:00:19.652Z,1.9
2023-03-05T19:05:16.693Z,2.0
2023-03-05T19:10:19.622Z,1.7
2023-03-05T19:15:16.652Z,1.7
2023-03-05T19:20:17.728Z,1.8
2023-03-05T19:25:16.772Z,1.7
2023-03-05T19:30:19.756Z,1.5
2023-03-05T19:35:16.704Z,1.5
2023-03-05T19:40:19.702Z,1.4
2023-03-05T19:45:19.702Z,1.5
2023-03-05T19:50:16.747Z,1.5
2023-03-05T19:55:17.328Z,1.5
2023-03-05T20:00:16.736Z,1.6
2023-03-05T20:05:19.753Z,1.6
2023-03-05T20:10:16.801Z,1.6
2023-03-05T20:15:16.741Z,1.5
2023-03-05T20:20:19.694Z,1.6
2023-03-05T20:25:16.724Z,1.6
2023-03-05T20:30:17.572Z,1.6
2023-03-05T20:35:19.885Z,1.6
2023-03-05T20:40:19.703Z,1.6
2023-03-05T20:45:16.772Z,1.5
2023-03-05T20:50:19.785Z,1.4
2023-03-05T20:55:19.713Z,1.4
2023-03-05T21:00:20.592Z,1.4
2023-03-05T21:05:19.720Z,1.4
2023-03-05T21:10:19.720Z,0.5
2023-03-05T21:15:19.737Z,0.3
2023-03-05T21:20:19.722Z,0.0
2023-03-05T21:25:16.814Z,0.0
2023-03-05T21:30:19.728Z,0.0
2023-03-05T21:35:20.791Z,1.0
2023-03-05T21:40:16.778Z,0.5
2023-03-05T21:45:19.772Z,0.6
2023-03-05T21:50:19.773Z,0.5
2023-03-05T21:55:16.794Z,0.0
2023-03-05T22:00:19.711Z,0.0
2023-03-05T22:05:19.727Z,0.0
2023-03-05T22:10:17.668Z,0.0
2023-03-05T22:15:19.762Z,0.0
2023-03-05T22:20:19.776Z,0.0
2023-03-05T22:25:19.727Z,0.0
2023-03-05T22:30:19.772Z,0.0
2023-03-05T22:35:19.876Z,0.0
2023-03-05T22:40:20.770Z,0.0
2023-03-05T22:45:16.853Z,0.0
2023-03-05T22:50:19.741Z,0.0
2023-03-05T22:55:19.789Z,0.0
2023-03-05T23:00:16.851Z,0.0
2023-03-05T23:05:16.891Z,0.0
2023-03-05T23:10:19.815Z,0.0
2023-03-05T23:15:20.727Z,0.0
2023-03-05T23:20:17.000Z,0.0
2023-03-05T23:25:19.823Z,0.0
2023-03-05T23:30:19.934Z,0.0
2023-03-05T23:35:16.859Z,0.0
2023-03-05T23:40:19.799Z,0.0
2023-03-05T23:45:19.813Z,0.0
2023-03-05T23:50:20.580Z,0.0
2023-03-05T23:55:19.805Z,0.0
